sensor_id;sensor_type;location;lat;lon;timestamp;P1;durP1;ratioP1;P2;durP2;ratioP2
6205;SDS011;3136;48.788;9.772;2022-07-29T00:01:49;11.37;;;8.20;;
6205;SDS011;3136;48.788;9.772;2022-07-29T00:04:17;9.37;;;7.03;;
6205;SDS011;3136;48.788;9.772;2022-07-29T00:06:43;10.40;;;8.23;;
6205;SDS011;3136;48.788;9.772;2022-07-29T00:09:09;12.43;;;7.90;;
6205;SDS011;3136;48.788;9.772;2022-07-29T00:11:34;11.10;;;8.13;;
6205;SDS011;3136;48.788;9.772;2022-07-29T00:14:00;10.53;;;7.63;;
6205;SDS011;3136;48.788;9.772;2022-07-29T00:16:26;15.23;;;8.20;;
6205;SDS011;3136;48.788;9.772;2022-07-29T00:18:51;11.73;;;8.13;;
6205;SDS011;3136;48.788;9.772;2022-07-29T00:21:17;10.80;;;8.00;;
6205;SDS011;3136;48.788;9.772;2022-07-29T00:23:42;9.30;;;7.63;;
6205;SDS011;3136;48.788;9.772;2022-07-29T00:26:08;9.33;;;7.60;;
6205;SDS011;3136;48.788;9.772;2022-07-29T00:28:33;12.10;;;7.83;;
6205;SDS011;3136;48.788;9.772;2022-07-29T00:30:59;10.93;;;8.03;;
6205;SDS011;3136;48.788;9.772;2022-07-29T00:33:25;9.93;;;7.40;;
6205;SDS011;3136;48.788;9.772;2022-07-29T00:35:51;13.03;;;8.77;;
6205;SDS011;3136;48.788;9.772;2022-07-29T00:38:17;8.67;;;7.20;;
6205;SDS011;3136;48.788;9.772;2022-07-29T00:40:45;11.10;;;7.80;;
6205;SDS011;3136;48.788;9.772;2022-07-29T00:43:11;11.30;;;7.50;;
6205;SDS011;3136;48.788;9.772;2022-07-29T00:45:38;9.60;;;7.40;;
6205;SDS011;3136;48.788;9.772;2022-07-29T00:48:05;9.27;;;7.63;;
6205;SDS011;3136;48.788;9.772;2022-07-29T00:50:31;11.70;;;8.33;;
6205;SDS011;3136;48.788;9.772;2022-07-29T00:52:58;12.27;;;7.60;;
6205;SDS011;3136;48.788;9.772;2022-07-29T00:55:24;11.90;;;8.20;;
6205;SDS011;3136;48.788;9.772;2022-07-29T00:57:50;8.90;;;7.70;;
6205;SDS011;3136;48.788;9.772;2022-07-29T01:00:18;11.83;;;8.60;;
6205;SDS011;3136;48.788;9.772;2022-07-29T01:02:47;11.03;;;8.50;;
6205;SDS011;3136;48.788;9.772;2022-07-29T01:05:13;10.07;;;8.13;;
6205;SDS011;3136;48.788;9.772;2022-07-29T01:07:41;11.97;;;8.20;;
6205;SDS011;3136;48.788;9.772;2022-07-29T01:10:07;14.43;;;9.40;;
6205;SDS011;3136;48.788;9.772;2022-07-29T01:12:35;14.17;;;10.03;;
6205;SDS011;3136;48.788;9.772;2022-07-29T01:15:03;14.27;;;11.03;;
6205;SDS011;3136;48.788;9.772;2022-07-29T01:22:53;15.00;;;10.70;;
6205;SDS011;3136;48.788;9.772;2022-07-29T01:31:43;16.73;;;11.03;;
6205;SDS011;3136;48.788;9.772;2022-07-29T01:34:15;14.27;;;10.17;;
6205;SDS011;3136;48.788;9.772;2022-07-29T01:36:48;12.23;;;10.27;;
6205;SDS011;3136;48.788;9.772;2022-07-29T01:39:30;13.87;;;10.07;;
6205;SDS011;3136;48.788;9.772;2022-07-29T01:42:01;12.13;;;10.07;;
6205;SDS011;3136;48.788;9.772;2022-07-29T01:44:33;14.47;;;10.67;;
6205;SDS011;3136;48.788;9.772;2022-07-29T01:47:05;12.90;;;9.57;;
6205;SDS011;3136;48.788;9.772;2022-07-29T01:49:39;14.87;;;10.77;;
6205;SDS011;3136;48.788;9.772;2022-07-29T01:52:15;12.73;;;9.83;;
6205;SDS011;3136;48.788;9.772;2022-07-29T01:54:52;14.80;;;10.40;;
6205;SDS011;3136;48.788;9.772;2022-07-29T01:57:21;16.90;;;10.07;;
6205;SDS011;3136;48.788;9.772;2022-07-29T01:59:54;14.77;;;10.20;;
6205;SDS011;3136;48.788;9.772;2022-07-29T02:02:22;13.17;;;9.90;;
6205;SDS011;3136;48.788;9.772;2022-07-29T02:04:48;15.60;;;11.00;;
6205;SDS011;3136;48.788;9.772;2022-07-29T02:07:19;13.60;;;10.53;;
6205;SDS011;3136;48.788;9.772;2022-07-29T02:09:47;13.70;;;10.53;;
6205;SDS011;3136;48.788;9.772;2022-07-29T02:12:14;12.50;;;10.00;;
6205;SDS011;3136;48.788;9.772;2022-07-29T02:14:50;16.10;;;10.60;;
6205;SDS011;3136;48.788;9.772;2022-07-29T02:17:20;14.03;;;10.17;;
6205;SDS011;3136;48.788;9.772;2022-07-29T02:19:53;12.07;;;9.97;;
6205;SDS011;3136;48.788;9.772;2022-07-29T02:22:22;14.13;;;11.40;;
6205;SDS011;3136;48.788;9.772;2022-07-29T02:24:51;12.47;;;10.83;;
6205;SDS011;3136;48.788;9.772;2022-07-29T02:27:19;11.87;;;10.20;;
6205;SDS011;3136;48.788;9.772;2022-07-29T02:29:45;13.50;;;10.80;;
6205;SDS011;3136;48.788;9.772;2022-07-29T02:32:13;12.93;;;10.23;;
6205;SDS011;3136;48.788;9.772;2022-07-29T02:34:41;13.83;;;11.20;;
6205;SDS011;3136;48.788;9.772;2022-07-29T02:37:09;17.13;;;10.37;;
6205;SDS011;3136;48.788;9.772;2022-07-29T02:39:36;13.33;;;10.53;;
6205;SDS011;3136;48.788;9.772;2022-07-29T02:42:05;11.33;;;10.13;;
6205;SDS011;3136;48.788;9.772;2022-07-29T02:44:33;13.77;;;10.20;;
6205;SDS011;3136;48.788;9.772;2022-07-29T02:47:08;11.73;;;10.03;;
6205;SDS011;3136;48.788;9.772;2022-07-29T02:52:47;11.83;;;9.77;;
6205;SDS011;3136;48.788;9.772;2022-07-29T02:55:22;14.40;;;10.30;;
6205;SDS011;3136;48.788;9.772;2022-07-29T02:57:56;13.77;;;9.03;;
6205;SDS011;3136;48.788;9.772;2022-07-29T03:00:29;13.70;;;9.50;;
6205;SDS011;3136;48.788;9.772;2022-07-29T03:02:56;12.33;;;9.00;;
6205;SDS011;3136;48.788;9.772;2022-07-29T03:05:24;15.87;;;9.37;;
6205;SDS011;3136;48.788;9.772;2022-07-29T03:07:52;14.50;;;9.13;;
6205;SDS011;3136;48.788;9.772;2022-07-29T03:10:22;14.27;;;9.63;;
6205;SDS011;3136;48.788;9.772;2022-07-29T03:12:50;14.97;;;9.20;;
6205;SDS011;3136;48.788;9.772;2022-07-29T03:15:16;12.73;;;9.30;;
6205;SDS011;3136;48.788;9.772;2022-07-29T03:17:42;9.60;;;8.70;;
6205;SDS011;3136;48.788;9.772;2022-07-29T03:20:09;9.87;;;8.47;;
6205;SDS011;3136;48.788;9.772;2022-07-29T03:22:40;9.33;;;8.33;;
6205;SDS011;3136;48.788;9.772;2022-07-29T03:25:12;11.63;;;8.80;;
6205;SDS011;3136;48.788;9.772;2022-07-29T03:27:39;13.87;;;8.83;;
6205;SDS011;3136;48.788;9.772;2022-07-29T03:30:06;9.97;;;7.73;;
6205;SDS011;3136;48.788;9.772;2022-07-29T03:32:33;10.37;;;8.00;;
6205;SDS011;3136;48.788;9.772;2022-07-29T03:34:58;11.80;;;8.73;;
6205;SDS011;3136;48.788;9.772;2022-07-29T03:37:24;9.73;;;8.27;;
6205;SDS011;3136;48.788;9.772;2022-07-29T03:39:50;9.70;;;8.53;;
6205;SDS011;3136;48.788;9.772;2022-07-29T03:42:17;16.53;;;9.03;;
6205;SDS011;3136;48.788;9.772;2022-07-29T03:44:45;14.27;;;9.53;;
6205;SDS011;3136;48.788;9.772;2022-07-29T03:47:13;16.50;;;8.53;;
6205;SDS011;3136;48.788;9.772;2022-07-29T03:49:42;14.57;;;8.40;;
6205;SDS011;3136;48.788;9.772;2022-07-29T03:52:09;10.20;;;8.10;;
6205;SDS011;3136;48.788;9.772;2022-07-29T03:54:35;11.60;;;8.50;;
6205;SDS011;3136;48.788;9.772;2022-07-29T03:57:01;12.60;;;8.00;;
6205;SDS011;3136;48.788;9.772;2022-07-29T03:59:28;10.07;;;8.17;;
6205;SDS011;3136;48.788;9.772;2022-07-29T04:01:57;10.67;;;8.50;;
6205;SDS011;3136;48.788;9.772;2022-07-29T04:04:23;13.67;;;8.67;;
6205;SDS011;3136;48.788;9.772;2022-07-29T04:06:50;11.53;;;8.73;;
6205;SDS011;3136;48.788;9.772;2022-07-29T04:09:16;15.50;;;9.37;;
6205;SDS011;3136;48.788;9.772;2022-07-29T04:11:42;12.67;;;9.17;;
6205;SDS011;3136;48.788;9.772;2022-07-29T04:14:08;17.47;;;9.53;;
6205;SDS011;3136;48.788;9.772;2022-07-29T04:16:33;14.07;;;8.93;;
6205;SDS011;3136;48.788;9.772;2022-07-29T04:18:59;16.47;;;9.73;;
6205;SDS011;3136;48.788;9.772;2022-07-29T04:21:24;11.33;;;9.30;;
6205;SDS011;3136;48.788;9.772;2022-07-29T04:23:50;15.10;;;9.17;;
6205;SDS011;3136;48.788;9.772;2022-07-29T04:26:16;14.13;;;9.07;;
6205;SDS011;3136;48.788;9.772;2022-07-29T04:28:42;12.67;;;9.50;;
6205;SDS011;3136;48.788;9.772;2022-07-29T04:31:08;19.20;;;10.70;;
6205;SDS011;3136;48.788;9.772;2022-07-29T04:33:34;13.47;;;9.67;;
6205;SDS011;3136;48.788;9.772;2022-07-29T04:36:00;16.07;;;9.17;;
6205;SDS011;3136;48.788;9.772;2022-07-29T04:38:25;14.07;;;8.93;;
6205;SDS011;3136;48.788;9.772;2022-07-29T04:40:51;16.37;;;9.47;;
6205;SDS011;3136;48.788;9.772;2022-07-29T04:43:17;13.10;;;9.03;;
6205;SDS011;3136;48.788;9.772;2022-07-29T04:45:42;22.37;;;10.73;;
6205;SDS011;3136;48.788;9.772;2022-07-29T04:48:08;49.50;;;11.40;;
6205;SDS011;3136;48.788;9.772;2022-07-29T04:50:33;55.87;;;10.90;;
6205;SDS011;3136;48.788;9.772;2022-07-29T04:52:59;15.47;;;10.73;;
6205;SDS011;3136;48.788;9.772;2022-07-29T04:55:25;16.70;;;10.90;;
6205;SDS011;3136;48.788;9.772;2022-07-29T04:57:51;48.83;;;11.33;;
6205;SDS011;3136;48.788;9.772;2022-07-29T05:00:16;39.93;;;11.17;;
6205;SDS011;3136;48.788;9.772;2022-07-29T05:02:42;58.17;;;11.57;;
6205;SDS011;3136;48.788;9.772;2022-07-29T05:05:07;57.27;;;12.97;;
6205;SDS011;3136;48.788;9.772;2022-07-29T05:07:33;17.57;;;10.30;;
6205;SDS011;3136;48.788;9.772;2022-07-29T05:09:59;28.43;;;11.57;;
6205;SDS011;3136;48.788;9.772;2022-07-29T05:12:24;24.40;;;11.47;;
6205;SDS011;3136;48.788;9.772;2022-07-29T05:14:50;34.70;;;13.03;;
6205;SDS011;3136;48.788;9.772;2022-07-29T05:17:16;35.83;;;12.90;;
6205;SDS011;3136;48.788;9.772;2022-07-29T05:19:42;21.03;;;12.50;;
6205;SDS011;3136;48.788;9.772;2022-07-29T05:22:07;31.83;;;12.30;;
6205;SDS011;3136;48.788;9.772;2022-07-29T05:24:33;55.33;;;12.40;;
6205;SDS011;3136;48.788;9.772;2022-07-29T05:26:59;29.83;;;11.53;;
6205;SDS011;3136;48.788;9.772;2022-07-29T05:29:24;59.60;;;10.77;;
6205;SDS011;3136;48.788;9.772;2022-07-29T05:31:50;52.73;;;10.90;;
6205;SDS011;3136;48.788;9.772;2022-07-29T05:34:17;15.37;;;9.80;;
6205;SDS011;3136;48.788;9.772;2022-07-29T05:36:44;19.97;;;10.23;;
6205;SDS011;3136;48.788;9.772;2022-07-29T05:39:10;13.83;;;10.23;;
6205;SDS011;3136;48.788;9.772;2022-07-29T05:41:35;15.47;;;10.63;;
6205;SDS011;3136;48.788;9.772;2022-07-29T05:44:01;15.60;;;10.90;;
6205;SDS011;3136;48.788;9.772;2022-07-29T05:46:27;11.60;;;10.30;;
6205;SDS011;3136;48.788;9.772;2022-07-29T05:48:53;13.73;;;11.63;;
6205;SDS011;3136;48.788;9.772;2022-07-29T05:51:18;17.00;;;11.63;;
6205;SDS011;3136;48.788;9.772;2022-07-29T05:53:44;13.47;;;11.13;;
6205;SDS011;3136;48.788;9.772;2022-07-29T05:56:10;11.40;;;10.17;;
6205;SDS011;3136;48.788;9.772;2022-07-29T05:58:35;14.07;;;10.37;;
6205;SDS011;3136;48.788;9.772;2022-07-29T06:01:01;12.13;;;10.90;;
6205;SDS011;3136;48.788;9.772;2022-07-29T06:03:27;15.93;;;12.13;;
6205;SDS011;3136;48.788;9.772;2022-07-29T06:05:52;14.80;;;12.30;;
6205;SDS011;3136;48.788;9.772;2022-07-29T06:08:18;13.90;;;12.50;;
6205;SDS011;3136;48.788;9.772;2022-07-29T06:10:44;14.50;;;12.03;;
6205;SDS011;3136;48.788;9.772;2022-07-29T06:13:10;13.57;;;12.27;;
6205;SDS011;3136;48.788;9.772;2022-07-29T06:15:37;19.13;;;13.47;;
6205;SDS011;3136;48.788;9.772;2022-07-29T06:18:02;14.33;;;12.83;;
6205;SDS011;3136;48.788;9.772;2022-07-29T06:20:28;15.93;;;12.30;;
6205;SDS011;3136;48.788;9.772;2022-07-29T06:22:55;14.80;;;13.20;;
6205;SDS011;3136;48.788;9.772;2022-07-29T06:25:21;14.67;;;11.77;;
6205;SDS011;3136;48.788;9.772;2022-07-29T06:27:47;15.47;;;12.63;;
6205;SDS011;3136;48.788;9.772;2022-07-29T06:30:13;14.13;;;11.90;;
6205;SDS011;3136;48.788;9.772;2022-07-29T06:32:39;13.13;;;11.67;;
6205;SDS011;3136;48.788;9.772;2022-07-29T06:35:05;16.53;;;12.73;;
6205;SDS011;3136;48.788;9.772;2022-07-29T06:37:31;15.83;;;12.17;;
6205;SDS011;3136;48.788;9.772;2022-07-29T06:39:56;12.47;;;11.17;;
6205;SDS011;3136;48.788;9.772;2022-07-29T06:42:43;13.10;;;11.70;;
6205;SDS011;3136;48.788;9.772;2022-07-29T06:45:10;12.77;;;11.47;;
6205;SDS011;3136;48.788;9.772;2022-07-29T06:47:36;13.07;;;11.53;;
6205;SDS011;3136;48.788;9.772;2022-07-29T06:50:02;12.00;;;10.80;;
6205;SDS011;3136;48.788;9.772;2022-07-29T06:52:28;13.47;;;12.07;;
6205;SDS011;3136;48.788;9.772;2022-07-29T06:54:54;13.00;;;11.60;;
6205;SDS011;3136;48.788;9.772;2022-07-29T06:57:20;11.57;;;10.33;;
6205;SDS011;3136;48.788;9.772;2022-07-29T06:59:46;14.70;;;11.87;;
6205;SDS011;3136;48.788;9.772;2022-07-29T07:02:12;11.17;;;10.07;;
6205;SDS011;3136;48.788;9.772;2022-07-29T07:04:37;11.83;;;10.30;;
6205;SDS011;3136;48.788;9.772;2022-07-29T07:07:03;14.17;;;10.23;;
6205;SDS011;3136;48.788;9.772;2022-07-29T07:09:29;10.83;;;9.73;;
6205;SDS011;3136;48.788;9.772;2022-07-29T07:11:54;11.33;;;9.73;;
6205;SDS011;3136;48.788;9.772;2022-07-29T07:14:20;12.33;;;10.07;;
6205;SDS011;3136;48.788;9.772;2022-07-29T07:16:45;11.53;;;9.33;;
6205;SDS011;3136;48.788;9.772;2022-07-29T07:19:11;10.20;;;7.83;;
6205;SDS011;3136;48.788;9.772;2022-07-29T07:21:36;8.90;;;7.70;;
6205;SDS011;3136;48.788;9.772;2022-07-29T07:24:02;9.07;;;7.20;;
6205;SDS011;3136;48.788;9.772;2022-07-29T07:26:28;10.27;;;7.70;;
6205;SDS011;3136;48.788;9.772;2022-07-29T07:28:53;8.73;;;7.30;;
6205;SDS011;3136;48.788;9.772;2022-07-29T07:31:19;8.07;;;6.93;;
6205;SDS011;3136;48.788;9.772;2022-07-29T07:33:45;10.27;;;6.87;;
6205;SDS011;3136;48.788;9.772;2022-07-29T07:36:10;7.50;;;6.40;;
6205;SDS011;3136;48.788;9.772;2022-07-29T07:38:36;6.27;;;5.50;;
6205;SDS011;3136;48.788;9.772;2022-07-29T07:41:02;7.37;;;5.17;;
6205;SDS011;3136;48.788;9.772;2022-07-29T07:43:27;7.13;;;5.03;;
6205;SDS011;3136;48.788;9.772;2022-07-29T07:45:53;6.17;;;5.57;;
6205;SDS011;3136;48.788;9.772;2022-07-29T07:48:18;7.00;;;5.50;;
6205;SDS011;3136;48.788;9.772;2022-07-29T07:50:44;6.33;;;5.43;;
6205;SDS011;3136;48.788;9.772;2022-07-29T07:53:10;6.70;;;5.37;;
6205;SDS011;3136;48.788;9.772;2022-07-29T07:55:42;7.40;;;4.87;;
6205;SDS011;3136;48.788;9.772;2022-07-29T07:58:08;7.07;;;4.50;;
6205;SDS011;3136;48.788;9.772;2022-07-29T08:00:34;4.97;;;4.37;;
6205;SDS011;3136;48.788;9.772;2022-07-29T08:03:00;8.80;;;5.40;;
6205;SDS011;3136;48.788;9.772;2022-07-29T08:05:25;5.43;;;4.07;;
6205;SDS011;3136;48.788;9.772;2022-07-29T08:07:51;5.73;;;4.40;;
6205;SDS011;3136;48.788;9.772;2022-07-29T08:10:17;6.23;;;4.37;;
6205;SDS011;3136;48.788;9.772;2022-07-29T08:13:04;4.53;;;3.50;;
6205;SDS011;3136;48.788;9.772;2022-07-29T08:15:33;4.93;;;3.77;;
6205;SDS011;3136;48.788;9.772;2022-07-29T08:17:59;4.07;;;3.07;;
6205;SDS011;3136;48.788;9.772;2022-07-29T08:20:25;5.50;;;3.43;;
6205;SDS011;3136;48.788;9.772;2022-07-29T08:22:51;5.73;;;3.10;;
6205;SDS011;3136;48.788;9.772;2022-07-29T08:25:17;5.17;;;3.07;;
6205;SDS011;3136;48.788;9.772;2022-07-29T08:27:45;4.13;;;3.20;;
6205;SDS011;3136;48.788;9.772;2022-07-29T08:30:13;4.17;;;3.40;;
6205;SDS011;3136;48.788;9.772;2022-07-29T08:32:39;3.50;;;2.90;;
6205;SDS011;3136;48.788;9.772;2022-07-29T08:35:05;5.97;;;3.00;;
6205;SDS011;3136;48.788;9.772;2022-07-29T08:37:31;3.07;;;2.40;;
6205;SDS011;3136;48.788;9.772;2022-07-29T08:39:57;3.50;;;2.70;;
6205;SDS011;3136;48.788;9.772;2022-07-29T08:42:23;3.90;;;2.70;;
6205;SDS011;3136;48.788;9.772;2022-07-29T08:44:49;4.00;;;2.67;;
6205;SDS011;3136;48.788;9.772;2022-07-29T08:47:15;5.10;;;2.70;;
6205;SDS011;3136;48.788;9.772;2022-07-29T08:49:42;3.07;;;2.70;;
6205;SDS011;3136;48.788;9.772;2022-07-29T08:52:10;2.93;;;2.50;;
6205;SDS011;3136;48.788;9.772;2022-07-29T08:54:36;4.53;;;2.50;;
6205;SDS011;3136;48.788;9.772;2022-07-29T08:57:04;4.40;;;2.50;;
6205;SDS011;3136;48.788;9.772;2022-07-29T08:59:30;3.33;;;2.63;;
6205;SDS011;3136;48.788;9.772;2022-07-29T09:01:59;4.43;;;2.70;;
6205;SDS011;3136;48.788;9.772;2022-07-29T09:04:32;3.37;;;2.60;;
6205;SDS011;3136;48.788;9.772;2022-07-29T09:07:00;4.33;;;2.80;;
6205;SDS011;3136;48.788;9.772;2022-07-29T09:09:29;4.17;;;2.47;;
6205;SDS011;3136;48.788;9.772;2022-07-29T09:11:55;2.50;;;2.30;;
6205;SDS011;3136;48.788;9.772;2022-07-29T09:14:20;4.33;;;2.57;;
6205;SDS011;3136;48.788;9.772;2022-07-29T09:16:50;4.17;;;2.40;;
6205;SDS011;3136;48.788;9.772;2022-07-29T09:19:29;3.70;;;2.60;;
6205;SDS011;3136;48.788;9.772;2022-07-29T09:21:57;2.80;;;2.60;;
6205;SDS011;3136;48.788;9.772;2022-07-29T09:27:00;3.60;;;2.70;;
6205;SDS011;3136;48.788;9.772;2022-07-29T09:29:26;3.93;;;2.90;;
6205;SDS011;3136;48.788;9.772;2022-07-29T09:31:53;4.20;;;2.50;;
6205;SDS011;3136;48.788;9.772;2022-07-29T09:34:23;4.70;;;2.60;;
6205;SDS011;3136;48.788;9.772;2022-07-29T09:36:51;4.60;;;2.87;;
6205;SDS011;3136;48.788;9.772;2022-07-29T09:39:28;3.00;;;2.70;;
6205;SDS011;3136;48.788;9.772;2022-07-29T09:41:56;3.10;;;2.80;;
6205;SDS011;3136;48.788;9.772;2022-07-29T09:44:23;4.60;;;3.00;;
6205;SDS011;3136;48.788;9.772;2022-07-29T09:46:58;3.87;;;3.10;;
6205;SDS011;3136;48.788;9.772;2022-07-29T09:49:30;4.10;;;3.03;;
6205;SDS011;3136;48.788;9.772;2022-07-29T09:52:08;3.27;;;2.87;;
6205;SDS011;3136;48.788;9.772;2022-07-29T09:54:35;3.20;;;2.90;;
6205;SDS011;3136;48.788;9.772;2022-07-29T09:57:26;4.70;;;2.90;;
6205;SDS011;3136;48.788;9.772;2022-07-29T10:00:01;3.30;;;3.00;;
6205;SDS011;3136;48.788;9.772;2022-07-29T10:02:30;5.33;;;2.63;;
6205;SDS011;3136;48.788;9.772;2022-07-29T10:04:58;3.47;;;2.83;;
6205;SDS011;3136;48.788;9.772;2022-07-29T10:07:24;3.00;;;2.70;;
6205;SDS011;3136;48.788;9.772;2022-07-29T10:09:54;4.83;;;3.20;;
6205;SDS011;3136;48.788;9.772;2022-07-29T10:12:21;5.03;;;2.70;;
6205;SDS011;3136;48.788;9.772;2022-07-29T10:14:47;4.33;;;3.00;;
6205;SDS011;3136;48.788;9.772;2022-07-29T10:17:14;3.20;;;2.70;;
6205;SDS011;3136;48.788;9.772;2022-07-29T10:19:41;3.13;;;2.83;;
6205;SDS011;3136;48.788;9.772;2022-07-29T10:22:07;5.67;;;3.00;;
6205;SDS011;3136;48.788;9.772;2022-07-29T10:24:34;7.57;;;3.00;;
6205;SDS011;3136;48.788;9.772;2022-07-29T10:27:03;5.93;;;3.20;;
6205;SDS011;3136;48.788;9.772;2022-07-29T10:29:33;4.37;;;2.90;;
6205;SDS011;3136;48.788;9.772;2022-07-29T10:37:27;3.80;;;2.97;;
6205;SDS011;3136;48.788;9.772;2022-07-29T10:40:24;5.70;;;3.07;;
6205;SDS011;3136;48.788;9.772;2022-07-29T10:43:16;4.10;;;2.63;;
6205;SDS011;3136;48.788;9.772;2022-07-29T10:45:47;4.57;;;3.20;;
6205;SDS011;3136;48.788;9.772;2022-07-29T10:48:14;3.20;;;2.83;;
6205;SDS011;3136;48.788;9.772;2022-07-29T10:50:56;4.82;;;3.13;;
6205;SDS011;3136;48.788;9.772;2022-07-29T10:56:22;3.65;;;2.97;;
6205;SDS011;3136;48.788;9.772;2022-07-29T11:01:51;6.72;;;2.58;;
6205;SDS011;3136;48.788;9.772;2022-07-29T11:07:24;3.15;;;2.70;;
6205;SDS011;3136;48.788;9.772;2022-07-29T11:20:41;5.20;;;3.17;;
6205;SDS011;3136;48.788;9.772;2022-07-29T11:23:24;3.15;;;2.85;;
6205;SDS011;3136;48.788;9.772;2022-07-29T11:26:15;6.05;;;3.20;;
6205;SDS011;3136;48.788;9.772;2022-07-29T11:31:19;4.37;;;3.07;;
6205;SDS011;3136;48.788;9.772;2022-07-29T11:33:56;5.03;;;3.37;;
6205;SDS011;3136;48.788;9.772;2022-07-29T11:36:22;4.73;;;3.03;;
6205;SDS011;3136;48.788;9.772;2022-07-29T11:38:47;4.63;;;3.33;;
6205;SDS011;3136;48.788;9.772;2022-07-29T11:41:19;3.73;;;3.30;;
6205;SDS011;3136;48.788;9.772;2022-07-29T11:43:58;4.13;;;3.47;;
6205;SDS011;3136;48.788;9.772;2022-07-29T11:49:13;6.27;;;3.50;;
6205;SDS011;3136;48.788;9.772;2022-07-29T11:51:54;7.13;;;3.43;;
6205;SDS011;3136;48.788;9.772;2022-07-29T11:54:25;5.77;;;3.63;;
6205;SDS011;3136;48.788;9.772;2022-07-29T11:56:52;5.23;;;3.40;;
6205;SDS011;3136;48.788;9.772;2022-07-29T11:59:18;4.37;;;3.50;;
6205;SDS011;3136;48.788;9.772;2022-07-29T12:01:54;6.70;;;3.30;;
6205;SDS011;3136;48.788;9.772;2022-07-29T12:04:20;5.77;;;3.20;;
6205;SDS011;3136;48.788;9.772;2022-07-29T12:06:51;5.17;;;3.97;;
6205;SDS011;3136;48.788;9.772;2022-07-29T12:09:18;4.00;;;3.53;;
6205;SDS011;3136;48.788;9.772;2022-07-29T12:11:45;5.77;;;3.50;;
6205;SDS011;3136;48.788;9.772;2022-07-29T12:14:24;6.33;;;3.73;;
6205;SDS011;3136;48.788;9.772;2022-07-29T12:16:51;4.40;;;3.30;;
6205;SDS011;3136;48.788;9.772;2022-07-29T12:19:16;4.00;;;3.70;;
6205;SDS011;3136;48.788;9.772;2022-07-29T12:21:43;6.33;;;3.80;;
6205;SDS011;3136;48.788;9.772;2022-07-29T12:24:13;5.80;;;3.80;;
6205;SDS011;3136;48.788;9.772;2022-07-29T12:26:48;4.30;;;3.63;;
6205;SDS011;3136;48.788;9.772;2022-07-29T12:29:18;5.30;;;3.90;;
6205;SDS011;3136;48.788;9.772;2022-07-29T12:31:44;7.97;;;4.07;;
6205;SDS011;3136;48.788;9.772;2022-07-29T12:34:13;5.90;;;3.80;;
6205;SDS011;3136;48.788;9.772;2022-07-29T12:36:40;8.47;;;4.13;;
6205;SDS011;3136;48.788;9.772;2022-07-29T12:39:07;7.13;;;4.37;;
6205;SDS011;3136;48.788;9.772;2022-07-29T12:41:34;4.97;;;3.80;;
6205;SDS011;3136;48.788;9.772;2022-07-29T12:44:00;4.43;;;3.97;;
6205;SDS011;3136;48.788;9.772;2022-07-29T12:46:25;6.60;;;3.70;;
6205;SDS011;3136;48.788;9.772;2022-07-29T12:48:52;7.53;;;3.87;;
6205;SDS011;3136;48.788;9.772;2022-07-29T12:51:28;6.33;;;4.00;;
6205;SDS011;3136;48.788;9.772;2022-07-29T12:54:07;5.70;;;4.50;;
6205;SDS011;3136;48.788;9.772;2022-07-29T12:56:35;7.70;;;3.97;;
6205;SDS011;3136;48.788;9.772;2022-07-29T12:59:14;4.57;;;4.10;;
6205;SDS011;3136;48.788;9.772;2022-07-29T13:01:41;11.47;;;4.17;;
6205;SDS011;3136;48.788;9.772;2022-07-29T13:04:07;6.47;;;4.07;;
6205;SDS011;3136;48.788;9.772;2022-07-29T13:11:31;8.30;;;4.30;;
6205;SDS011;3136;48.788;9.772;2022-07-29T13:13:58;7.73;;;4.30;;
6205;SDS011;3136;48.788;9.772;2022-07-29T13:16:23;8.23;;;4.47;;
6205;SDS011;3136;48.788;9.772;2022-07-29T13:18:54;8.00;;;4.57;;
6205;SDS011;3136;48.788;9.772;2022-07-29T13:21:35;6.27;;;4.30;;
6205;SDS011;3136;48.788;9.772;2022-07-29T13:24:02;5.67;;;4.50;;
6205;SDS011;3136;48.788;9.772;2022-07-29T13:26:29;7.27;;;4.30;;
6205;SDS011;3136;48.788;9.772;2022-07-29T13:28:55;5.87;;;4.50;;
6205;SDS011;3136;48.788;9.772;2022-07-29T13:31:20;7.03;;;4.60;;
6205;SDS011;3136;48.788;9.772;2022-07-29T13:33:47;5.63;;;4.67;;
6205;SDS011;3136;48.788;9.772;2022-07-29T13:36:12;7.83;;;4.30;;
6205;SDS011;3136;48.788;9.772;2022-07-29T13:38:38;6.50;;;4.13;;
6205;SDS011;3136;48.788;9.772;2022-07-29T13:41:04;4.43;;;3.90;;
6205;SDS011;3136;48.788;9.772;2022-07-29T13:43:30;5.13;;;3.87;;
6205;SDS011;3136;48.788;9.772;2022-07-29T13:45:55;7.27;;;4.10;;
6205;SDS011;3136;48.788;9.772;2022-07-29T13:48:21;6.40;;;3.67;;
6205;SDS011;3136;48.788;9.772;2022-07-29T13:50:46;5.70;;;2.73;;
6205;SDS011;3136;48.788;9.772;2022-07-29T13:53:13;4.27;;;2.77;;
6205;SDS011;3136;48.788;9.772;2022-07-29T13:55:39;2.80;;;2.50;;
6205;SDS011;3136;48.788;9.772;2022-07-29T13:58:04;4.10;;;2.67;;
6205;SDS011;3136;48.788;9.772;2022-07-29T14:00:30;4.97;;;2.43;;
6205;SDS011;3136;48.788;9.772;2022-07-29T14:02:56;3.27;;;2.10;;
6205;SDS011;3136;48.788;9.772;2022-07-29T14:05:21;3.10;;;1.97;;
6205;SDS011;3136;48.788;9.772;2022-07-29T14:07:47;5.70;;;2.53;;
6205;SDS011;3136;48.788;9.772;2022-07-29T14:10:13;2.70;;;1.90;;
6205;SDS011;3136;48.788;9.772;2022-07-29T14:12:38;2.10;;;1.80;;
6205;SDS011;3136;48.788;9.772;2022-07-29T14:15:06;2.33;;;2.00;;
6205;SDS011;3136;48.788;9.772;2022-07-29T14:17:32;2.47;;;1.97;;
6205;SDS011;3136;48.788;9.772;2022-07-29T14:19:58;2.20;;;2.00;;
6205;SDS011;3136;48.788;9.772;2022-07-29T14:22:24;2.20;;;2.00;;
6205;SDS011;3136;48.788;9.772;2022-07-29T14:24:50;2.97;;;2.00;;
6205;SDS011;3136;48.788;9.772;2022-07-29T14:27:15;2.40;;;2.20;;
6205;SDS011;3136;48.788;9.772;2022-07-29T14:29:41;2.40;;;2.10;;
6205;SDS011;3136;48.788;9.772;2022-07-29T14:32:07;2.40;;;2.20;;
6205;SDS011;3136;48.788;9.772;2022-07-29T14:34:35;3.97;;;2.20;;
6205;SDS011;3136;48.788;9.772;2022-07-29T14:37:01;2.90;;;2.30;;
6205;SDS011;3136;48.788;9.772;2022-07-29T14:39:27;2.33;;;2.13;;
6205;SDS011;3136;48.788;9.772;2022-07-29T14:41:54;5.17;;;2.20;;
6205;SDS011;3136;48.788;9.772;2022-07-29T14:44:19;2.83;;;2.03;;
6205;SDS011;3136;48.788;9.772;2022-07-29T14:46:45;3.33;;;2.50;;
6205;SDS011;3136;48.788;9.772;2022-07-29T14:49:10;6.93;;;3.00;;
6205;SDS011;3136;48.788;9.772;2022-07-29T14:51:36;2.80;;;2.20;;
6205;SDS011;3136;48.788;9.772;2022-07-29T14:54:02;3.23;;;2.70;;
6205;SDS011;3136;48.788;9.772;2022-07-29T14:56:27;3.53;;;2.30;;
6205;SDS011;3136;48.788;9.772;2022-07-29T14:58:55;3.40;;;2.10;;
6205;SDS011;3136;48.788;9.772;2022-07-29T15:01:21;3.30;;;2.50;;
6205;SDS011;3136;48.788;9.772;2022-07-29T15:03:46;3.13;;;2.37;;
6205;SDS011;3136;48.788;9.772;2022-07-29T15:06:12;3.23;;;2.20;;
6205;SDS011;3136;48.788;9.772;2022-07-29T15:08:38;4.50;;;2.50;;
6205;SDS011;3136;48.788;9.772;2022-07-29T15:11:03;2.63;;;2.33;;
6205;SDS011;3136;48.788;9.772;2022-07-29T15:13:29;3.23;;;2.67;;
6205;SDS011;3136;48.788;9.772;2022-07-29T15:15:54;4.03;;;2.40;;
6205;SDS011;3136;48.788;9.772;2022-07-29T15:18:20;3.37;;;2.40;;
6205;SDS011;3136;48.788;9.772;2022-07-29T15:20:45;4.97;;;2.50;;
6205;SDS011;3136;48.788;9.772;2022-07-29T15:23:11;3.07;;;2.70;;
6205;SDS011;3136;48.788;9.772;2022-07-29T15:25:38;3.10;;;2.50;;
6205;SDS011;3136;48.788;9.772;2022-07-29T15:28:04;2.73;;;2.30;;
6205;SDS011;3136;48.788;9.772;2022-07-29T15:30:32;6.03;;;2.67;;
6205;SDS011;3136;48.788;9.772;2022-07-29T15:32:59;3.10;;;2.27;;
6205;SDS011;3136;48.788;9.772;2022-07-29T15:35:25;3.83;;;2.57;;
6205;SDS011;3136;48.788;9.772;2022-07-29T15:37:51;2.40;;;2.20;;
6205;SDS011;3136;48.788;9.772;2022-07-29T15:40:17;3.03;;;2.77;;
6205;SDS011;3136;48.788;9.772;2022-07-29T15:42:42;3.27;;;2.20;;
6205;SDS011;3136;48.788;9.772;2022-07-29T15:45:08;2.40;;;2.20;;
6205;SDS011;3136;48.788;9.772;2022-07-29T15:47:37;2.73;;;2.43;;
6205;SDS011;3136;48.788;9.772;2022-07-29T15:50:02;7.37;;;2.80;;
6205;SDS011;3136;48.788;9.772;2022-07-29T15:52:28;3.43;;;2.40;;
6205;SDS011;3136;48.788;9.772;2022-07-29T15:54:54;2.93;;;2.50;;
6205;SDS011;3136;48.788;9.772;2022-07-29T15:57:20;3.63;;;2.90;;
6205;SDS011;3136;48.788;9.772;2022-07-29T15:59:46;6.20;;;2.67;;
6205;SDS011;3136;48.788;9.772;2022-07-29T16:02:12;3.50;;;2.40;;